Terminal Aerodrome Forecast
Issued by NWS

Current Version | Previous Version | Graphics & Text | Print | Product List | Glossary On
Versions: 1 2 3 4 5 6 7 8 9 10 11 12 13
880
FTUS41 KPBZ 072336
TAFMGW
TAF
KMGW 072336Z 0800/0824 19005KT P6SM BKN250
     FM081800 14005KT P6SM -RA OVC025
     FM082000 16005KT 3SM -RASN OVC020
     FM082200 20005KT 2SM -SN BR OVC015=

USA.gov is the U.S. government's official web portal to all federal, state and local government web resources and services.